UKLU/UDJ METAR and TAF weather

Enter ICAO airport designator
Station Type Date Time Source
UKLU METAR 2021/01/17 16:00 UTC NOAA

UKLU 171600Z 00000MPS 9999 OVC021 M05/M08 Q1019 NOSIG


Station Type Date Time Source
UKLU Decoded METAR 2021/01/17 16:00 UTC NOAA

Uzhhorod, Ukraine (UKLU) 48-38-05N 022-15-53E
Jan 17, 2021 - 11:00 AM EST / 2021.01.17 1600 UTC
Wind: Calm:0
Visibility: greater than 7 mile(s):0
Sky conditions: overcast
Temperature: 23 F (-5 C)
Dew Point: 17 F (-8 C)
Relative Humidity: 79%
Pressure (altimeter): 30.09 in. Hg (1019 hPa)
ob: UKLU 171600Z 00000MPS 9999 OVC021 M05/M08 Q1019 NOSIG
cycle: 16

Station Type Date Time Source
UKLU TAF 2020/10/05 06:21 UTC NOAA

TAF TAF UKLU 050505Z 0506/0518 VRB01MPS 9999 SCT040
TEMPO 0506/0512 14005G10MPS SCT030CB

Example: see airport list